Time;durP1;ratioP1;P1;durP2;ratioP2;P2;SDS_P1;SDS_P2;PMS_P1;PMS_P2;Temp;Humidity;BMP_temperature;BMP_pressure;BME280_temperature;BME280_humidity;BME280_pressure;Samples;Min_cycle;Max_cycle;Signal;HPM_P1;HPM_P2
2021/09/13 00:02:05;;;;;;;3.47;3.20;;;;;;;15.40;57.54;101752.34;10584134;28;20089;-76
2021/09/13 00:07:05;;;;;;;4.40;3.03;;;;;;;16.50;57.77;101951.19;10549483;28;20111;-76
2021/09/13 00:12:06;;;;;;;5.38;3.20;;;;;;;16.46;57.62;101951.81;10583611;28;20028;-76
2021/09/13 00:17:07;;;;;;;4.35;3.40;;;;;;;16.26;58.05;101929.94;10583097;28;20040;-76
2021/09/13 00:22:07;;;;;;;5.13;2.72;;;;;;;16.36;57.82;101957.69;10583105;28;20063;-76
2021/09/13 00:27:08;;;;;;;3.88;3.22;;;;;;;16.35;58.20;101955.19;10564180;28;20054;-76
2021/09/13 00:32:08;;;;;;;3.20;3.00;;;;;;;16.23;58.12;101941.31;10582312;28;20092;-76
2021/09/13 00:37:08;;;;;;;2.15;1.95;;;;;;;16.29;57.98;101954.13;10548113;28;20118;-76
2021/09/13 00:42:09;;;;;;;10.77;3.75;;;;;;;16.01;57.93;101911.44;10583294;28;20036;-76
2021/09/13 00:47:09;;;;;;;6.15;2.95;;;;;;;16.18;57.90;101946.56;10573585;28;20106;-76
2021/09/13 00:52:10;;;;;;;7.45;3.13;;;;;;;16.13;57.73;101933.50;10573933;28;20119;-76
2021/09/13 00:57:10;;;;;;;4.35;3.92;;;;;;;15.97;57.93;101917.53;10572702;28;20054;-76
2021/09/13 01:02:10;;;;;;;3.33;2.67;;;;;;;16.11;58.11;101942.97;10561382;28;20039;-76
2021/09/13 01:07:11;;;;;;;12.23;3.88;;;;;;;15.94;58.32;101915.22;10573624;28;20122;-75
2021/09/13 01:12:12;;;;;;;6.00;3.22;;;;;;;16.13;58.35;101935.41;10555633;28;20070;-76
2021/09/13 01:17:13;;;;;;;4.30;3.35;;;;;;;15.35;59.04;101802.09;10590737;28;20042;-76
2021/09/13 01:22:13;;;;;;;8.40;4.72;;;;;;;15.72;59.12;101865.41;10573234;28;20051;-76
2021/09/13 01:27:14;;;;;;;2.80;2.60;;;;;;;16.22;58.91;101942.38;10572430;28;20038;-76
2021/09/13 01:32:14;;;;;;;9.13;4.07;;;;;;;15.96;58.30;101913.13;10571504;28;20042;-76
2021/09/13 01:37:15;;;;;;;5.75;3.47;;;;;;;16.09;59.38;101951.38;10571178;28;20513;-76
2021/09/13 01:42:15;;;;;;;5.25;3.42;;;;;;;15.86;58.94;101888.09;10589277;28;20058;-76
2021/09/13 01:47:15;;;;;;;3.33;3.00;;;;;;;16.14;58.72;101932.47;10589031;28;20443;-76
2021/09/13 01:52:16;;;;;;;6.30;3.85;;;;;;;16.12;59.20;101925.53;10590227;28;20123;-76
2021/09/13 01:57:16;;;;;;;6.47;3.47;;;;;;;15.41;58.59;101790.38;10587136;28;20052;-76
2021/09/13 02:02:17;;;;;;;6.70;3.15;;;;;;;16.32;58.89;101923.66;10553335;28;20120;-76
2021/09/13 02:07:17;;;;;;;3.53;3.03;;;;;;;16.33;59.48;101925.31;10569828;28;20050;-76
2021/09/13 02:12:20;;;;;;;9.23;5.43;;;;;;;16.46;59.17;101914.41;10570067;28;20047;-75
2021/09/13 02:17:21;;;;;;;6.15;3.85;;;;;;;16.49;59.20;101905.75;10569947;28;20043;-76
2021/09/13 02:22:21;;;;;;;6.45;4.55;;;;;;;16.44;58.85;101870.00;10587289;28;20043;-76
2021/09/13 02:27:21;;;;;;;7.95;4.55;;;;;;;16.69;59.11;101870.19;10551646;28;20127;-76
2021/09/13 02:32:22;;;;;;;8.18;4.97;;;;;;;14.35;58.63;101480.16;10568387;28;20478;-76
2021/09/13 02:37:22;;;;;;;6.47;5.57;;;;;;;17.07;58.84;101874.06;10587232;28;20039;-76
2021/09/13 02:42:23;;;;;;;9.18;4.32;;;;;;;17.02;58.64;101852.00;10552726;28;20040;-76
2021/09/13 02:47:23;;;;;;;5.18;4.50;;;;;;;17.53;58.83;101908.59;10587799;28;20070;-76
2021/09/13 02:52:24;;;;;;;4.95;4.45;;;;;;;17.70;58.89;101917.97;10587006;28;20055;-76
2021/09/13 02:57:24;;;;;;;8.50;6.28;;;;;;;17.79;58.60;101915.84;10586114;28;20083;-75
2021/09/13 03:02:24;;;;;;;9.40;5.20;;;;;;;17.29;58.63;101897.34;10568073;28;20028;-75
2021/09/13 03:07:25;;;;;;;5.53;2.78;;;;;;;17.88;58.38;101900.81;10585417;28;20047;-76
2021/09/13 03:12:25;;;;;;;4.43;3.97;;;;;;;18.03;58.60;101906.00;10585123;28;20039;-76
2021/09/13 03:17:26;;;;;;;6.25;3.92;;;;;;;17.99;58.28;101907.47;10584809;28;20036;-76
2021/09/13 03:22:26;;;;;;;4.53;2.10;;;;;;;18.06;58.68;101900.03;10550045;28;20528;-75
2021/09/13 03:27:26;;;;;;;9.20;2.50;;;;;;;17.19;58.28;101757.38;10585567;28;20040;-76
2021/09/13 03:32:27;;;;;;;4.50;2.83;;;;;;;17.64;58.24;101853.09;10585673;28;20390;-76
2021/09/13 03:37:27;;;;;;;11.20;3.80;;;;;;;17.76;58.70;101897.91;10584637;28;20035;-76
2021/09/13 03:42:27;;;;;;;7.55;3.47;;;;;;;17.36;58.68;101876.25;10584842;28;20395;-76
2021/09/13 03:47:28;;;;;;;7.63;3.90;;;;;;;16.51;58.59;101727.81;10565697;28;20032;-76
2021/09/13 03:52:28;;;;;;;6.25;4.30;;;;;;;17.62;58.62;101901.81;10583479;28;20035;-76
2021/09/13 03:57:29;;;;;;;7.97;3.15;;;;;;;16.95;58.71;101781.72;10564196;28;20051;-76
2021/09/13 04:02:30;;;;;;;19.60;4.13;;;;;;;17.68;58.17;101876.28;10583140;28;20081;-76
2021/09/13 04:07:38;;;;;;;6.45;3.72;;;;;;;17.55;59.15;101836.13;10584873;28;20035;-76
2021/09/13 04:12:38;;;;;;;7.45;2.60;;;;;;;17.98;58.97;101875.66;10584284;28;20035;-76
2021/09/13 04:17:39;;;;;;;6.90;4.65;;;;;;;18.09;58.56;101894.13;10583640;28;20032;-76
2021/09/13 04:22:39;;;;;;;5.85;3.00;;;;;;;18.30;58.92;101901.94;10582872;28;20436;-77
2021/09/13 04:27:39;;;;;;;3.15;2.95;;;;;;;18.36;58.44;101903.78;10581904;28;20028;-75
2021/09/13 04:32:40;;;;;;;6.18;4.00;;;;;;;17.98;58.41;101827.16;10582780;28;20043;-76
2021/09/13 04:37:40;;;;;;;5.45;3.22;;;;;;;18.48;58.58;101897.59;10512504;28;20051;-75
2021/09/13 04:42:41;;;;;;;4.47;3.47;;;;;;;18.31;58.65;101900.91;10591060;28;20032;-79
2021/09/13 04:47:41;;;;;;;11.43;4.28;;;;;;;18.03;59.28;101846.53;10548057;28;20028;-79
2021/09/13 04:52:42;;;;;;;5.75;4.00;;;;;;;18.34;59.58;101896.84;10566000;28;20035;-79
2021/09/13 04:57:42;;;;;;;4.00;3.22;;;;;;;18.17;59.57;101860.13;10545908;28;20051;-77
2021/09/13 05:02:42;;;;;;;7.25;3.15;;;;;;;18.22;59.60;101872.09;10583529;28;20054;-77
2021/09/13 05:07:43;;;;;;;4.13;3.25;;;;;;;18.44;59.40;101904.56;10583616;28;20161;-76
2021/09/13 05:12:43;;;;;;;13.10;3.33;;;;;;;18.46;59.71;101884.09;10566099;28;20040;-77
2021/09/13 05:17:44;;;;;;;7.07;3.40;;;;;;;18.67;59.73;101899.28;10583673;28;20040;-77
2021/09/13 05:22:44;;;;;;;5.97;4.15;;;;;;;17.92;59.59;101772.41;10582235;28;20027;-76
2021/09/13 05:27:45;;;;;;;4.88;2.97;;;;;;;18.74;59.40;101919.28;10581528;28;20471;-76
2021/09/13 05:32:45;;;;;;;3.25;2.92;;;;;;;18.55;59.19;101876.41;10568617;28;20032;-76
2021/09/13 05:37:45;;;;;;;3.33;2.90;;;;;;;18.85;59.05;101895.72;10570099;28;20104;-77
2021/09/13 05:42:46;;;;;;;6.70;3.08;;;;;;;18.98;58.90;101924.94;10589218;28;20573;-76
2021/09/13 05:47:46;;;;;;;3.17;2.45;;;;;;;18.29;58.57;101815.28;10590161;28;20035;-76
2021/09/13 05:52:46;;;;;;;6.35;3.00;;;;;;;18.95;58.57;101900.69;10588599;28;20146;-76
2021/09/13 05:57:47;;;;;;;7.85;3.80;;;;;;;17.94;60.66;101775.78;10589727;28;20059;-77
2021/09/13 06:02:48;;;;;;;6.85;3.83;;;;;;;18.71;60.11;101883.22;10587459;28;20046;-77
2021/09/13 06:07:48;;;;;;;8.93;4.18;;;;;;;18.97;59.52;101918.63;10587290;28;20031;-75
2021/09/13 06:12:48;;;;;;;8.70;3.70;;;;;;;17.99;59.98;101737.56;10587265;28;20024;-76
2021/09/13 06:17:49;;;;;;;3.63;3.33;;;;;;;19.44;59.29;101923.53;10568630;28;20104;-76
2021/09/13 06:22:49;;;;;;;2.63;2.42;;;;;;;19.51;58.33;101880.31;10568785;28;20032;-76
2021/09/13 06:27:50;;;;;;;2.67;2.47;;;;;;;20.13;57.61;101935.03;10586476;28;20031;-77
2021/09/13 06:32:50;;;;;;;5.13;3.13;;;;;;;19.96;57.11;101888.13;10568613;28;20038;-77
2021/09/13 06:37:50;;;;;;;5.50;2.92;;;;;;;19.74;56.85;101824.63;10567998;28;20067;-77
2021/09/13 06:42:51;;;;;;;10.25;3.17;;;;;;;19.71;56.67;101798.44;10585637;28;20038;-77
2021/09/13 06:47:51;;;;;;;4.70;3.88;;;;;;;20.52;57.53;101950.06;10585746;28;20089;-75
2021/09/13 06:52:52;;;;;;;4.68;4.18;;;;;;;20.62;57.75;101943.97;10550569;28;20035;-77
2021/09/13 06:57:53;;;;;;;8.95;4.03;;;;;;;20.14;57.94;101874.31;10584364;28;20055;-77
2021/09/13 07:02:54;;;;;;;8.77;4.55;;;;;;;20.84;57.59;101947.78;10585159;28;20039;-76
2021/09/13 07:07:54;;;;;;;17.98;4.90;;;;;;;21.21;56.86;101933.72;10586014;28;20467;-76
2021/09/13 07:12:55;;;;;;;3.70;3.38;;;;;;;21.68;55.88;101954.81;10586644;28;20027;-77
2021/09/13 07:17:55;;;;;;;10.00;3.85;;;;;;;21.40;55.34;101947.34;10585007;28;20059;-77
2021/09/13 07:22:56;;;;;;;10.77;4.93;;;;;;;20.79;55.27;101825.72;10585188;28;20475;-77
2021/09/13 07:27:56;;;;;;;9.40;3.17;;;;;;;21.31;55.21;101938.59;10584862;28;20042;-77
2021/09/13 07:32:57;;;;;;;4.18;3.63;;;;;;;21.82;55.09;101984.59;10584623;28;20070;-77
2021/09/13 07:37:57;;;;;;;8.80;4.90;;;;;;;20.86;54.75;101809.88;10584499;28;20047;-76
2021/09/13 07:42:57;;;;;;;8.50;4.07;;;;;;;21.58;54.62;101909.41;10584950;28;20491;-76
2021/09/13 07:47:58;;;;;;;5.47;3.90;;;;;;;22.01;54.75;101971.41;10583006;28;20055;-77
2021/09/13 07:52:58;;;;;;;4.40;3.40;;;;;;;22.02;54.51;101981.38;10563915;28;20070;-74
2021/09/13 07:57:59;;;;;;;6.90;3.67;;;;;;;21.81;54.64;101933.28;10583367;28;20047;-74
2021/09/13 08:02:59;;;;;;;7.07;2.92;;;;;;;22.37;54.52;101996.94;10582264;28;20031;-74
2021/09/13 08:07:59;;;;;;;4.18;3.40;;;;;;;22.65;54.18;101987.69;10581899;28;20051;-74
2021/09/13 08:13:00;;;;;;;3.40;3.10;;;;;;;23.15;53.11;101984.06;10581882;28;20105;-74
2021/09/13 08:18:00;;;;;;;9.10;2.45;;;;;;;23.45;52.21;101980.00;10546487;28;20040;-74
2021/09/13 08:23:01;;;;;;;7.70;2.80;;;;;;;23.31;51.82;101987.03;10581727;28;20036;-74
2021/09/13 08:28:01;;;;;;;8.85;2.83;;;;;;;23.62;51.31;101969.72;10580895;28;20039;-74
2021/09/13 08:33:02;;;;;;;2.70;2.45;;;;;;;24.07;50.39;101981.56;10582075;28;20092;-74
2021/09/13 08:38:02;;;;;;;1.70;1.60;;;;;;;24.39;49.43;101994.59;10563196;28;20044;-74
2021/09/13 08:43:03;;;;;;;3.30;1.35;;;;;;;24.71;48.57;102002.91;10582177;28;20445;-74
2021/09/13 08:53:11;;;;;;;2.10;1.25;;;;;;;25.02;47.24;101952.13;10563677;28;20028;-75
2021/09/13 08:58:15;;;;;;;1.40;1.23;;;;;;;24.44;47.46;101894.97;10580964;28;20130;-74
2021/09/13 09:03:15;;;;;;;9.57;1.98;;;;;;;25.24;47.38;101988.03;10582228;28;20035;-75
2021/09/13 09:08:27;;;;;;;2.80;1.60;;;;;;;25.93;47.50;102011.03;10572848;28;20463;-73
2021/09/13 09:13:38;;;;;;;14.73;2.40;;;;;;;26.41;46.81;102020.81;10555349;28;20118;-74
2021/09/13 09:18:48;;;;;;;5.32;2.67;;;;;;;26.81;44.96;101985.00;10572161;28;20117;-74
2021/09/13 09:23:59;;;;;;;6.43;1.67;;;;;;;26.65;45.13;101998.91;10571138;28;20060;-74
2021/09/13 09:29:00;;;;;;;5.18;1.20;;;;;;;25.22;45.63;101886.81;10588533;28;20463;-75
2021/09/13 09:34:17;;;;;;;1.20;1.20;;;;;;;25.43;45.63;102012.47;10570395;28;20040;-74
2021/09/13 09:39:17;;;;;;;1.33;1.23;;;;;;;25.02;45.13;102015.88;10553636;28;20513;-74
2021/09/13 09:44:20;;;;;;;9.15;2.05;;;;;;;24.46;46.47;101990.50;10587966;28;20098;-74
2021/09/13 09:49:21;;;;;;;2.05;1.83;;;;;;;24.44;46.25;101984.44;10588919;28;20103;-74
2021/09/13 09:54:23;;;;;;;1.23;1.15;;;;;;;25.17;45.54;102003.22;10570464;28;20087;-74
2021/09/13 09:59:24;;;;;;;7.95;1.40;;;;;;;25.20;46.00;101995.19;10569439;28;20044;-75
2021/09/13 10:04:27;;;;;;;1.25;1.23;;;;;;;25.54;45.83;101997.56;10568795;28;20047;-74
2021/09/13 10:09:29;;;;;;;3.83;1.33;;;;;;;24.38;44.77;101833.19;10586965;28;20051;-75
2021/09/13 10:14:30;;;;;;;6.78;2.03;;;;;;;23.98;45.02;101759.03;10568664;28;20035;-75
2021/09/13 10:19:30;;;;;;;0.90;0.90;;;;;;;25.27;44.48;101989.41;10586335;28;20119;-75
2021/09/13 10:24:31;;;;;;;0.95;0.80;;;;;;;24.81;44.35;101879.13;10587176;28;20043;-74
2021/09/13 10:29:32;;;;;;;1.65;1.40;;;;;;;24.67;44.35;101875.19;10568236;28;20394;-74
2021/09/13 10:34:49;;;;;;;0.95;0.95;;;;;;;26.04;44.84;101959.13;10569179;28;20092;-75
2021/09/13 10:40:01;;;;;;;0.80;0.80;;;;;;;25.94;42.94;101977.47;10586784;28;20144;-75
2021/09/13 10:45:20;;;;;;;0.90;0.90;;;;;;;25.30;43.72;101969.44;10585903;28;20092;-74
2021/09/13 10:50:22;;;;;;;1.02;0.90;;;;;;;22.39;44.28;101547.66;10570242;28;20031;-75
2021/09/13 10:55:29;;;;;;;1.27;1.20;;;;;;;24.76;45.24;101965.00;10585947;28;20075;-74
2021/09/13 11:00:39;;;;;;;3.75;1.27;;;;;;;24.76;45.42;101965.00;10585182;28;20071;-75
2021/09/13 11:05:39;;;;;;;1.55;1.23;;;;;;;23.83;45.23;101843.56;10584376;28;20047;-74
2021/09/13 11:10:43;;;;;;;2.72;1.17;;;;;;;24.68;45.43;101962.72;10566319;28;20369;-74
2021/09/13 11:15:50;;;;;;;3.65;1.17;;;;;;;24.87;45.58;101953.97;10584527;28;20044;-74
2021/09/13 11:20:55;;;;;;;3.30;2.13;;;;;;;24.87;45.03;101952.03;10584472;28;20463;-75
2021/09/13 11:25:56;;;;;;;2.60;2.03;;;;;;;25.10;44.01;101945.22;10584441;28;20035;-74
2021/09/13 11:30:56;;;;;;;2.58;1.48;;;;;;;25.08;44.86;101919.72;10563736;28;20028;-74
2021/09/13 11:35:57;;;;;;;2.13;1.30;;;;;;;25.17;44.55;101928.38;10583497;28;20066;-75
2021/09/13 11:40:57;;;;;;;1.10;1.10;;;;;;;25.45;44.65;101929.88;10548062;28;20032;-74
2021/09/13 11:46:04;;;;;;;1.13;1.13;;;;;;;25.57;44.26;101938.78;10565356;28;20538;-75
2021/09/13 11:51:04;;;;;;;1.08;1.08;;;;;;;25.31;44.00;101912.91;10548137;28;20106;-75
2021/09/13 11:56:05;;;;;;;2.25;1.25;;;;;;;25.30;44.23;101922.31;10582682;28;20051;-74
2021/09/13 12:01:05;;;;;;;2.08;1.10;;;;;;;25.29;43.92;101888.22;10582006;28;20495;-75
2021/09/13 12:06:06;;;;;;;2.08;1.30;;;;;;;25.36;44.15;101915.69;10582608;28;20043;-75
2021/09/13 12:11:06;;;;;;;2.33;1.60;;;;;;;25.11;44.49;101908.09;10547403;28;20035;-74
2021/09/13 12:16:10;;;;;;;1.55;1.17;;;;;;;24.95;44.86;101876.72;10564108;28;20035;-75
2021/09/13 12:21:16;;;;;;;3.50;1.88;;;;;;;23.95;45.27;101768.69;10547024;28;20031;-75
2021/09/13 12:26:26;;;;;;;3.58;1.58;;;;;;;22.84;46.31;101706.56;10582403;28;20035;-74
2021/09/13 12:31:27;;;;;;;1.60;1.50;;;;;;;23.49;46.87;101870.59;10547330;28;20118;-75
2021/09/13 12:36:28;;;;;;;1.08;1.08;;;;;;;22.54;47.43;101744.88;10581975;28;20032;-74
2021/09/13 12:41:35;;;;;;;4.47;1.60;;;;;;;22.83;47.55;101787.75;10563418;28;20043;-75
2021/09/13 12:46:44;;;;;;;10.35;2.03;;;;;;;22.75;47.81;101766.13;10582218;28;20463;-75
2021/09/13 12:52:00;;;;;;;4.95;1.35;;;;;;;23.57;47.67;101897.75;10562978;28;20447;-74
2021/09/13 12:57:01;;;;;;;2.60;2.10;;;;;;;22.36;47.25;101685.31;10563103;28;20055;-74
2021/09/13 13:02:15;;;;;;;1.85;1.55;;;;;;;23.09;47.19;101804.66;10562559;28;20264;-74
2021/09/13 13:07:18;;;;;;;2.60;1.60;;;;;;;23.05;47.56;101845.78;10563291;28;20032;-74
2021/09/13 13:12:18;;;;;;;3.22;1.33;;;;;;;22.51;47.19;101741.53;10562675;28;20054;-74
2021/09/13 13:17:19;;;;;;;2.70;1.58;;;;;;;23.63;46.47;101854.41;10545770;28;20031;-74
2021/09/13 13:22:19;;;;;;;1.45;1.30;;;;;;;23.62;46.46;101856.34;10562445;28;20096;-74
2021/09/13 13:27:20;;;;;;;1.55;1.45;;;;;;;22.79;46.09;101714.81;10579685;28;20360;-75
2021/09/13 13:32:20;;;;;;;1.92;1.83;;;;;;;22.82;45.58;101736.38;10580765;28;20031;-74
2021/09/13 13:37:20;;;;;;;1.05;1.05;;;;;;;22.75;45.07;101694.34;10580371;28;20111;-74
2021/09/13 13:42:21;;;;;;;1.38;1.23;;;;;;;23.35;45.54;101770.66;10580641;28;20040;-74
2021/09/13 13:47:24;;;;;;;1.33;1.25;;;;;;;23.03;45.09;101686.91;10580116;28;20035;-74
2021/09/13 13:52:24;;;;;;;3.35;2.20;;;;;;;24.20;45.43;101839.97;10583820;28;20028;-74
2021/09/13 13:57:25;;;;;;;3.42;1.88;;;;;;;24.21;44.86;101836.09;10568642;28;20052;-74
2021/09/13 14:02:25;;;;;;;1.30;1.30;;;;;;;23.77;45.66;101828.03;10587549;28;20114;-74
2021/09/13 14:07:26;;;;;;;2.65;1.73;;;;;;;23.98;45.56;101826.25;10568521;28;20096;-74
2021/09/13 14:12:26;;;;;;;1.58;1.20;;;;;;;23.18;45.41;101674.06;10568721;28;20026;-74
2021/09/13 14:17:29;;;;;;;5.78;1.52;;;;;;;24.56;45.07;101837.44;10568497;28;20039;-74
2021/09/13 14:22:30;;;;;;;1.85;1.05;;;;;;;23.92;45.00;101694.53;10568746;28;20383;-74
2021/09/13 14:27:30;;;;;;;1.38;1.27;;;;;;;25.04;44.05;101814.09;10586031;28;20028;-74
2021/09/13 14:32:31;;;;;;;1.27;1.27;;;;;;;24.55;43.32;101713.94;10591262;28;20028;-75
2021/09/13 14:37:31;;;;;;;1.00;1.00;;;;;;;24.97;43.98;101823.78;10568155;28;20081;-74
2021/09/13 14:42:32;;;;;;;1.80;1.70;;;;;;;25.09;43.55;101798.63;10585784;28;20028;-74
2021/09/13 14:47:32;;;;;;;2.10;1.25;;;;;;;25.22;43.82;101784.25;10585997;28;20070;-74
2021/09/13 14:52:39;;;;;;;2.28;1.63;;;;;;;23.74;44.96;101673.69;10585943;28;20390;-74
2021/09/13 14:57:39;;;;;;;0.70;0.70;;;;;;;23.86;45.85;101771.09;10584869;28;20143;-74
2021/09/13 15:02:40;;;;;;;2.70;0.98;;;;;;;23.74;45.87;101764.94;10584606;28;20031;-74
2021/09/13 15:07:40;;;;;;;3.80;1.10;;;;;;;23.69;45.73;101764.06;10584640;28;20051;-74
2021/09/13 15:12:41;;;;;;;0.70;0.70;;;;;;;23.96;46.00;101775.03;10565974;28;20059;-74
2021/09/13 15:17:42;;;;;;;3.13;1.60;;;;;;;23.76;46.00;101754.44;10584138;28;20031;-74
2021/09/13 15:22:43;;;;;;;0.80;0.80;;;;;;;23.92;45.46;101768.38;10565617;28;20035;-74
2021/09/13 15:27:43;;;;;;;1.13;1.02;;;;;;;23.83;45.85;101770.81;10583197;28;20039;-74
2021/09/13 15:32:44;;;;;;;1.00;1.00;;;;;;;23.63;45.97;101732.75;10583465;28;20031;-74
2021/09/13 15:37:44;;;;;;;0.98;0.98;;;;;;;23.48;46.62;101766.63;10582999;28;20039;-74
2021/09/13 15:42:44;;;;;;;0.90;0.90;;;;;;;23.00;46.56;101745.44;10582893;28;20368;-74
2021/09/13 15:47:45;;;;;;;1.65;0.73;;;;;;;22.87;46.70;101774.25;10564888;28;20036;-74
2021/09/13 15:52:46;;;;;;;1.20;1.13;;;;;;;22.63;47.01;101718.50;10582664;28;20062;-74
2021/09/13 15:57:46;;;;;;;0.88;0.88;;;;;;;22.69;47.71;101762.47;10564103;28;20506;-74
2021/09/13 16:02:47;;;;;;;1.75;1.65;;;;;;;22.81;47.77;101773.38;10564539;28;20102;-74
2021/09/13 16:07:48;;;;;;;1.65;1.55;;;;;;;22.71;48.29;101770.47;10582934;28;20040;-74
2021/09/13 16:12:49;;;;;;;2.45;2.20;;;;;;;22.91;48.20;101765.22;10564176;28;20028;-74
2021/09/13 16:17:49;;;;;;;7.60;2.47;;;;;;;22.48;50.27;101768.81;10582287;28;20035;-74
2021/09/13 16:22:49;;;;;;;4.40;1.95;;;;;;;22.51;50.24;101762.78;10563919;28;20431;-74
2021/09/13 16:27:50;;;;;;;1.73;1.50;;;;;;;22.36;50.87;101771.69;10581620;28;20077;-74
2021/09/13 16:32:50;;;;;;;1.92;1.83;;;;;;;21.97;51.01;101754.28;10563408;28;20107;-74
2021/09/13 16:37:51;;;;;;;2.00;1.90;;;;;;;22.04;51.08;101768.72;10581990;28;20059;-74
2021/09/13 16:42:51;;;;;;;1.13;1.10;;;;;;;21.75;51.41;101740.44;10581428;28;20364;-74
2021/09/13 16:47:51;;;;;;;2.97;2.50;;;;;;;21.78;51.16;101762.00;10581375;28;20040;-74
2021/09/13 16:52:52;;;;;;;2.00;1.70;;;;;;;21.97;51.38;101755.13;10563254;28;20036;-74
2021/09/13 16:57:52;;;;;;;7.25;2.85;;;;;;;20.98;51.65;101586.81;10580333;28;20055;-74
2021/09/13 17:02:53;;;;;;;3.42;2.22;;;;;;;21.70;52.29;101735.69;10581747;28;20027;-74
2021/09/13 17:07:53;;;;;;;8.50;1.38;;;;;;;21.14;52.84;101663.09;10581481;28;20044;-74
2021/09/13 17:12:54;;;;;;;11.98;2.72;;;;;;;21.44;53.47;101733.59;10581331;28;20036;-74
2021/09/13 17:17:54;;;;;;;11.30;3.20;;;;;;;20.96;54.37;101694.44;10580890;28;20093;-74
2021/09/13 17:22:55;;;;;;;2.55;2.45;;;;;;;21.24;54.28;101758.84;10580751;28;20031;-74
2021/09/13 17:27:55;;;;;;;5.32;3.25;;;;;;;20.27;54.32;101628.44;10586460;28;20037;-74
2021/09/13 17:32:55;;;;;;;13.73;2.53;;;;;;;20.79;55.18;101741.19;10588585;28;20076;-74
2021/09/13 17:37:56;;;;;;;8.68;2.35;;;;;;;19.33;55.30;101529.66;10589276;28;20063;-74
2021/09/13 17:42:56;;;;;;;2.67;2.05;;;;;;;20.47;55.37;101707.78;10570359;28;20514;-74
2021/09/13 17:47:57;;;;;;;1.95;1.75;;;;;;;20.30;55.46;101688.47;10588009;28;20059;-74
2021/09/13 17:52:57;;;;;;;3.33;2.03;;;;;;;20.58;55.54;101750.13;10587950;28;20084;-74
2021/09/13 17:57:57;;;;;;;3.65;1.63;;;;;;;19.62;55.68;101624.00;10568716;28;20056;-74
2021/09/13 18:03:00;;;;;;;10.57;2.28;;;;;;;20.09;55.96;101689.09;10587984;28;20032;-74
2021/09/13 18:08:00;;;;;;;2.13;1.95;;;;;;;20.08;56.38;101723.19;10569399;28;20057;-74
2021/09/13 18:13:00;;;;;;;1.70;1.60;;;;;;;20.01;56.80;101726.06;10587605;28;20115;-74
2021/09/13 18:18:01;;;;;;;8.38;2.15;;;;;;;19.99;57.30;101744.69;10587236;28;20119;-74
2021/09/13 18:23:01;;;;;;;2.88;1.95;;;;;;;19.98;56.50;101745.78;10587496;28;20231;-74
2021/09/13 18:28:02;;;;;;;4.18;2.13;;;;;;;19.73;57.43;101721.28;10585864;28;20035;-74
2021/09/13 18:33:03;;;;;;;7.07;2.88;;;;;;;19.76;57.97;101733.72;10586655;28;20498;-74
2021/09/13 18:38:03;;;;;;;4.70;2.20;;;;;;;19.84;57.65;101756.16;10585800;28;20042;-74
2021/09/13 18:43:04;;;;;;;7.00;1.80;;;;;;;19.54;57.61;101703.19;10534039;28;20414;-75
2021/09/13 18:48:06;;;;;;;6.10;2.00;;;;;;;19.77;57.77;101751.88;10568558;28;20023;-76
2021/09/13 18:53:07;;;;;;;5.00;2.08;;;;;;;18.56;58.21;101576.34;10585502;28;20089;-75
2021/09/13 18:58:07;;;;;;;2.67;2.13;;;;;;;19.65;57.93;101758.16;10549400;28;20581;-74
2021/09/13 19:03:07;;;;;;;16.05;2.20;;;;;;;19.66;56.79;101759.88;10584888;28;20032;-75
2021/09/13 19:08:08;;;;;;;3.85;2.50;;;;;;;19.65;57.53;101765.59;10585453;28;20548;-75
2021/09/13 19:13:13;;;;;;;7.93;2.53;;;;;;;19.57;57.73;101768.66;10584949;28;20062;-75
2021/09/13 19:18:13;;;;;;;7.93;3.70;;;;;;;19.33;58.32;101751.28;10584747;28;20130;-75
2021/09/13 19:23:14;;;;;;;1.40;1.35;;;;;;;19.00;58.23;101736.16;10566722;28;20405;-75
2021/09/13 19:28:14;;;;;;;9.65;2.70;;;;;;;18.94;58.91;101739.81;10549686;28;20023;-75
2021/09/13 19:33:14;;;;;;;3.33;3.03;;;;;;;18.95;59.67;101758.81;10584409;28;20027;-75
2021/09/13 19:38:15;;;;;;;2.53;2.30;;;;;;;17.92;59.01;101589.66;10584007;28;20134;-74
2021/09/13 19:43:15;;;;;;;7.38;2.65;;;;;;;18.21;59.68;101648.31;10583337;28;20067;-74
2021/09/13 19:48:16;;;;;;;7.15;2.63;;;;;;;17.88;60.20;101593.94;10564223;28;20092;-74
2021/09/13 19:53:16;;;;;;;9.60;2.80;;;;;;;18.72;59.77;101753.19;10582948;28;20096;-74
2021/09/13 19:58:17;;;;;;;6.22;1.85;;;;;;;18.66;59.91;101748.59;10582590;28;20067;-74
2021/09/13 20:03:17;;;;;;;5.18;2.13;;;;;;;18.71;60.26;101749.59;10582925;28;20471;-75
2021/09/13 20:08:18;;;;;;;4.63;2.50;;;;;;;18.14;60.21;101677.72;10583030;28;20077;-74
2021/09/13 20:13:18;;;;;;;7.07;2.88;;;;;;;18.59;60.13;101751.44;10582840;28;20135;-76
2021/09/13 20:18:18;;;;;;;3.50;2.38;;;;;;;18.53;59.85;101755.94;10582365;28;20047;-76
2021/09/13 20:23:19;;;;;;;6.43;1.95;;;;;;;18.44;60.28;101732.66;10582587;28;20077;-75
2021/09/13 20:28:19;;;;;;;3.47;2.42;;;;;;;18.51;60.48;101755.34;10581634;28;20399;-77
2021/09/13 20:33:20;;;;;;;4.55;2.53;;;;;;;17.57;60.01;101603.09;10564267;28;20536;-76
2021/09/13 20:38:20;;;;;;;2.45;2.25;;;;;;;18.29;60.36;101722.06;10582148;28;20032;-76
2021/09/13 20:43:21;;;;;;;3.42;3.13;;;;;;;18.40;60.93;101753.34;10582487;28;20039;-76
2021/09/13 20:48:21;;;;;;;2.55;2.05;;;;;;;18.22;60.28;101728.66;10581892;28;20120;-76
2021/09/13 20:53:22;;;;;;;4.78;2.72;;;;;;;18.22;60.49;101737.75;10563350;28;20038;-75
2021/09/13 20:58:22;;;;;;;9.52;2.80;;;;;;;17.87;61.72;101697.22;10562738;28;20039;-76
2021/09/13 21:03:22;;;;;;;6.95;4.15;;;;;;;17.89;61.80;101711.50;10589354;28;20100;-76
2021/09/13 21:08:23;;;;;;;4.20;2.33;;;;;;;17.85;62.97;101701.25;10590510;28;20067;-76
2021/09/13 21:13:23;;;;;;;7.00;3.45;;;;;;;17.88;62.52;101704.38;10590215;28;20096;-75
2021/09/13 21:18:24;;;;;;;9.38;3.03;;;;;;;17.83;62.82;101709.69;10554632;28;20039;-75
2021/09/13 21:23:24;;;;;;;4.82;3.78;;;;;;;17.82;63.08;101690.75;10571818;28;20169;-75
2021/09/13 21:28:24;;;;;;;7.45;2.88;;;;;;;17.86;63.05;101719.34;10589048;28;20584;-75
2021/09/13 21:33:25;;;;;;;8.57;4.70;;;;;;;17.83;62.92;101704.19;10589651;28;20122;-76
2021/09/13 21:38:25;;;;;;;9.75;3.67;;;;;;;17.93;62.43;101703.69;10589621;28;20471;-74
2021/09/13 21:43:26;;;;;;;5.10;3.30;;;;;;;17.44;63.43;101670.63;10571108;28;20122;-74
2021/09/13 21:48:26;;;;;;;7.78;3.40;;;;;;;17.75;63.45;101709.94;10554105;28;20055;-74
2021/09/13 21:53:26;;;;;;;9.77;4.25;;;;;;;17.84;63.48;101726.97;10587739;28;20058;-74
2021/09/13 21:58:27;;;;;;;8.00;4.65;;;;;;;17.61;63.25;101683.72;10570006;28;20088;-74
2021/09/13 22:03:27;;;;;;;12.60;6.40;;;;;;;16.93;63.11;101580.53;10569782;28;20031;-74
2021/09/13 22:08:28;;;;;;;10.57;3.78;;;;;;;17.66;63.52;101708.56;10587729;28;20039;-74
2021/09/13 22:13:28;;;;;;;10.32;3.95;;;;;;;16.43;63.63;101498.41;10586795;28;20031;-74
2021/09/13 22:18:28;;;;;;;7.13;4.38;;;;;;;17.58;63.49;101706.97;10588203;28;20555;-74
2021/09/13 22:23:29;;;;;;;9.27;5.18;;;;;;;17.64;63.82;101717.03;10569721;28;20372;-74
2021/09/13 22:28:29;;;;;;;3.78;3.47;;;;;;;17.49;62.99;101705.56;10586819;28;20043;-75
2021/09/13 22:33:29;;;;;;;6.97;4.38;;;;;;;17.50;63.54;101709.13;10587123;28;20498;-74
2021/09/13 22:38:30;;;;;;;5.63;4.85;;;;;;;17.25;64.58;101689.94;10586641;28;20039;-74
2021/09/13 22:43:30;;;;;;;6.50;4.05;;;;;;;17.10;64.64;101671.97;10568193;28;20047;-74
2021/09/13 22:48:31;;;;;;;4.18;3.88;;;;;;;17.30;64.41;101704.66;10586297;28;20114;-74
2021/09/13 22:53:31;;;;;;;13.32;5.30;;;;;;;17.20;64.25;101690.63;10567675;28;20039;-75
2021/09/13 22:58:32;;;;;;;9.15;5.88;;;;;;;17.00;64.81;101668.03;10566592;28;20024;-74
2021/09/13 23:03:32;;;;;;;8.40;5.20;;;;;;;17.10;65.05;101688.41;10585541;28;20039;-74
2021/09/13 23:08:32;;;;;;;5.88;5.18;;;;;;;17.04;65.70;101696.63;10585551;28;20117;-74